createdAt,value
2018-04-11T00:00:46.076Z,12.00
2018-04-11T00:03:50.976Z,12.40
2018-04-11T00:06:54.926Z,12.20
2018-04-11T00:09:59.403Z,12.20
2018-04-11T00:13:03.327Z,12.30
2018-04-11T00:16:08.036Z,12.20
2018-04-11T00:19:12.627Z,12.30
2018-04-11T00:22:16.500Z,12.30
2018-04-11T00:25:20.448Z,12.40
2018-04-11T00:28:24.397Z,12.50
2018-04-11T00:31:31.943Z,12.70
2018-04-11T00:34:36.116Z,12.60
2018-04-11T00:37:39.924Z,12.50
2018-04-11T00:40:43.924Z,12.50
2018-04-11T00:43:47.786Z,12.50
2018-04-11T00:46:52.879Z,12.40
2018-04-11T00:49:56.816Z,12.40
2018-04-11T00:53:18.643Z,12.30
2018-04-11T00:56:22.880Z,12.50
2018-04-11T00:59:26.791Z,12.20
2018-04-11T01:02:31.995Z,12.10
2018-04-11T01:05:35.863Z,12.10
2018-04-11T01:08:39.754Z,12.00
2018-04-11T01:11:44.074Z,12.10
2018-04-11T01:14:47.992Z,11.90
2018-04-11T01:17:52.683Z,11.90
2018-04-11T01:20:56.789Z,12.00
2018-04-11T01:24:00.592Z,11.90
2018-04-11T01:27:04.436Z,11.90
2018-04-11T01:30:09.221Z,11.90
2018-04-11T01:33:13.512Z,11.70
2018-04-11T01:36:17.423Z,11.20
2018-04-11T01:39:21.335Z,11.40
2018-04-11T01:42:25.215Z,11.20
2018-04-11T01:45:29.127Z,11.20
2018-04-11T01:48:34.243Z,10.90
2018-04-11T01:51:38.853Z,10.90
2018-04-11T01:54:42.700Z,11.00
2018-04-11T01:57:47.348Z,11.20
2018-04-11T02:00:51.939Z,11.00
2018-04-11T02:03:55.883Z,10.90
2018-04-11T02:07:00.299Z,10.80
2018-04-11T02:10:04.144Z,11.10
2018-04-11T02:13:08.032Z,11.00
2018-04-11T02:16:12.731Z,10.90
2018-04-11T02:19:17.359Z,10.90
2018-04-11T02:22:21.654Z,11.00
2018-04-11T02:25:25.518Z,10.70
2018-04-11T02:28:30.887Z,10.80
2018-04-11T02:31:35.233Z,10.80
2018-04-11T02:34:39.936Z,10.60
2018-04-11T02:37:44.208Z,11.10
2018-04-11T02:40:48.975Z,10.70
2018-04-11T02:43:52.896Z,10.60
2018-04-11T02:46:57.525Z,10.40
2018-04-11T02:50:01.752Z,10.40
2018-04-11T02:53:05.631Z,10.30
2018-04-11T02:56:09.973Z,10.20
2018-04-11T02:59:13.886Z,10.30
2018-04-11T03:02:17.837Z,10.30
2018-04-11T03:05:22.153Z,10.20
2018-04-11T03:08:25.983Z,10.10
2018-04-11T03:11:30.532Z,10.00
2018-04-11T03:14:35.758Z,9.80
2018-04-11T03:17:40.811Z,9.60
2018-04-11T03:20:44.700Z,9.70
2018-04-11T03:23:48.622Z,9.70
2018-04-11T03:26:52.539Z,9.80
2018-04-11T03:29:56.462Z,9.60
2018-04-11T03:33:00.772Z,9.60
2018-04-11T03:36:04.940Z,9.50
2018-04-11T03:39:09.671Z,9.30
2018-04-11T03:42:13.575Z,9.20
2018-04-11T03:45:18.268Z,9.10
2018-04-11T03:48:22.865Z,9.10
2018-04-11T03:51:26.676Z,9.20
2018-04-11T03:54:31.639Z,9.00
2018-04-11T03:57:35.531Z,9.00
2018-04-11T04:00:40.249Z,8.90
2018-04-11T04:03:44.568Z,8.80
2018-04-11T04:06:48.519Z,8.90
2018-04-11T04:09:52.608Z,8.70
2018-04-11T04:12:56.527Z,8.80
2018-04-11T04:16:18.615Z,8.70
2018-04-11T04:19:40.396Z,8.60
2018-04-11T04:22:45.904Z,8.80
2018-04-11T04:25:53.927Z,8.70
2018-04-11T04:28:58.885Z,8.60
2018-04-11T04:32:02.947Z,8.60
2018-04-11T04:35:12.062Z,8.90
2018-04-11T04:38:17.024Z,8.60
2018-04-11T04:41:21.238Z,8.90
2018-04-11T04:44:25.350Z,8.80
2018-04-11T04:47:30.689Z,8.60
2018-04-11T04:50:37.114Z,8.80
2018-04-11T04:53:41.731Z,9.00
2018-04-11T04:56:45.683Z,8.80
2018-04-11T04:59:50.631Z,8.80
2018-04-11T05:02:55.318Z,8.70
2018-04-11T05:05:59.228Z,8.60
2018-04-11T05:09:03.048Z,8.70
2018-04-11T05:12:06.868Z,8.80
2018-04-11T05:15:10.768Z,8.90
2018-04-11T05:18:14.656Z,8.70
2018-04-11T05:21:18.596Z,8.80
2018-04-11T05:24:22.465Z,8.60
2018-04-11T05:27:26.381Z,8.80
2018-04-11T05:30:31.125Z,8.60
2018-04-11T05:33:35.676Z,8.60
2018-04-11T05:36:39.630Z,8.70
2018-04-11T05:39:43.523Z,9.00
2018-04-11T05:42:47.446Z,9.10
2018-04-11T05:45:51.319Z,9.00
2018-04-11T05:48:55.484Z,9.10
2018-04-11T05:51:59.255Z,9.10
2018-04-11T05:55:03.848Z,9.20
2018-04-11T05:58:07.723Z,9.40
2018-04-11T06:01:11.917Z,9.40
2018-04-11T06:04:15.912Z,9.50
2018-04-11T06:07:20.142Z,9.50
2018-04-11T06:10:24.145Z,9.60
2018-04-11T06:13:27.934Z,9.50
2018-04-11T06:16:32.856Z,9.60
2018-04-11T06:19:37.016Z,9.60
2018-04-11T06:22:41.276Z,9.90
2018-04-11T06:25:46.339Z,10.00
2018-04-11T06:28:50.950Z,10.10
2018-04-11T06:31:55.312Z,10.20
2018-04-11T06:34:59.459Z,10.40
2018-04-11T06:38:03.316Z,10.50
2018-04-11T06:41:07.173Z,10.40
2018-04-11T06:44:11.008Z,10.70
2018-04-11T06:47:16.352Z,10.70
2018-04-11T06:50:20.182Z,10.80
2018-04-11T06:53:24.326Z,11.00
2018-04-11T06:56:28.208Z,11.10
2018-04-11T06:59:32.249Z,11.40
2018-04-11T07:02:37.836Z,11.40
2018-04-11T07:05:41.794Z,11.60
2018-04-11T07:08:47.822Z,11.50
2018-04-11T07:11:52.055Z,11.50
2018-04-11T07:14:56.504Z,11.60
2018-04-11T07:18:02.450Z,11.60
2018-04-11T07:21:06.360Z,11.70
2018-04-11T07:24:11.975Z,11.90
2018-04-11T07:27:15.863Z,12.00
2018-04-11T07:30:19.723Z,12.00
2018-04-11T07:33:24.348Z,12.20
2018-04-11T07:36:28.183Z,12.60
2018-04-11T07:39:32.072Z,12.50
2018-04-11T07:42:36.281Z,12.80
2018-04-11T07:45:40.129Z,12.80
2018-04-11T07:48:45.259Z,13.00
2018-04-11T07:51:49.099Z,13.30
2018-04-11T07:54:52.911Z,13.00
2018-04-11T07:57:57.135Z,12.90
2018-04-11T08:01:01.455Z,13.50
2018-04-11T08:04:05.709Z,13.70
2018-04-11T08:07:09.523Z,13.70
2018-04-11T08:10:13.767Z,14.10
2018-04-11T08:13:18.208Z,14.00
2018-04-11T08:16:22.442Z,14.30
2018-04-11T08:19:26.781Z,14.30
2018-04-11T08:22:31.016Z,14.40
2018-04-11T08:25:34.856Z,14.20
2018-04-11T08:28:39.090Z,14.60
2018-04-11T08:31:42.940Z,14.90
2018-04-11T08:34:46.795Z,15.00
2018-04-11T08:37:50.611Z,15.30
2018-04-11T08:40:54.457Z,15.10
2018-04-11T08:43:58.341Z,15.30
2018-04-11T08:47:03.225Z,16.00
2018-04-11T08:50:07.047Z,16.90
2018-04-11T08:53:11.527Z,17.50
2018-04-11T08:56:15.785Z,17.90
2018-04-11T08:59:19.592Z,18.40
2018-04-11T09:02:23.464Z,19.20
2018-04-11T09:05:27.369Z,19.30
2018-04-11T09:08:32.659Z,19.20
2018-04-11T09:11:36.525Z,19.50
2018-04-11T09:14:41.271Z,20.30
2018-04-11T09:17:45.527Z,19.90
2018-04-11T09:20:50.152Z,19.80
2018-04-11T09:23:54.341Z,20.20
2018-04-11T09:26:58.227Z,20.40
2018-04-11T09:30:02.052Z,20.60
2018-04-11T09:33:06.343Z,20.50
2018-04-11T09:36:10.123Z,20.60
2018-04-11T09:39:14.727Z,20.90
2018-04-11T09:42:18.576Z,21.20
2018-04-11T09:45:22.487Z,21.80
2018-04-11T09:48:26.312Z,21.60
2018-04-11T09:51:30.172Z,21.70
2018-04-11T09:54:34.005Z,22.10
2018-04-11T09:57:37.868Z,21.40
2018-04-11T10:00:41.695Z,21.10
2018-04-11T10:03:46.026Z,21.30
2018-04-11T10:06:49.897Z,22.10
2018-04-11T10:09:53.740Z,22.20
2018-04-11T10:12:58.363Z,21.60
2018-04-11T10:16:02.167Z,22.00
2018-04-11T10:19:06.066Z,22.20
2018-04-11T10:22:10.593Z,22.70
2018-04-11T10:25:14.432Z,22.60
2018-04-11T10:28:20.041Z,22.80
2018-04-11T10:31:23.889Z,22.90
2018-04-11T10:34:28.084Z,24.20
2018-04-11T10:37:31.917Z,23.80
2018-04-11T10:40:35.856Z,23.60
2018-04-11T10:43:41.447Z,23.90
2018-04-11T10:46:45.346Z,23.60
2018-04-11T10:49:49.607Z,24.10
2018-04-11T10:52:53.463Z,25.10
2018-04-11T10:55:57.299Z,24.30
2018-04-11T10:59:01.556Z,23.60
2018-04-11T11:02:05.396Z,23.00
2018-04-11T11:05:09.271Z,23.30
2018-04-11T11:08:13.196Z,23.60
2018-04-11T11:11:17.055Z,23.50
2018-04-11T11:14:21.496Z,23.10
2018-04-11T11:17:25.304Z,24.30
2018-04-11T11:20:30.249Z,24.70
2018-04-11T11:23:34.061Z,25.10
2018-04-11T11:26:39.765Z,25.80
2018-04-11T11:29:44.296Z,25.10
2018-04-11T11:32:48.166Z,23.80
2018-04-11T11:35:52.036Z,23.00
2018-04-11T11:38:56.891Z,22.60
2018-04-11T11:42:00.968Z,22.00
2018-04-11T11:45:05.032Z,22.10
2018-04-11T11:48:10.003Z,21.80
2018-04-11T11:51:13.871Z,21.30
2018-04-11T11:54:17.724Z,20.70
2018-04-11T11:57:21.648Z,20.30
2018-04-11T12:00:25.477Z,19.90
2018-04-11T12:03:29.314Z,19.80
2018-04-11T12:06:33.904Z,20.10
2018-04-11T12:09:38.207Z,20.80
2018-04-11T12:15:47.511Z,21.20
2018-04-11T12:18:52.636Z,21.00
2018-04-11T12:21:56.469Z,19.90
2018-04-11T12:25:00.371Z,19.90
2018-04-11T12:28:04.963Z,19.40
2018-04-11T12:31:09.095Z,19.50
2018-04-11T12:34:12.928Z,19.40
2018-04-11T12:37:17.149Z,19.60
2018-04-11T12:40:21.123Z,19.60
2018-04-11T12:43:24.956Z,19.80
2018-04-11T12:46:29.558Z,20.10
2018-04-11T12:49:34.429Z,20.50
2018-04-11T12:52:38.637Z,21.00
2018-04-11T12:55:42.512Z,21.50
2018-04-11T12:58:46.267Z,21.80
2018-04-11T13:01:50.141Z,22.00
2018-04-11T13:04:53.983Z,22.00
2018-04-11T13:07:57.846Z,22.10
2018-04-11T13:11:01.652Z,22.30
2018-04-11T13:14:05.492Z,22.50
2018-04-11T13:17:10.456Z,22.00
2018-04-11T13:20:14.320Z,21.50
2018-04-11T13:23:18.791Z,22.00
2018-04-11T13:26:22.631Z,22.20
2018-04-11T13:29:26.851Z,21.90
2018-04-11T13:32:31.075Z,22.00
2018-04-11T13:35:34.884Z,21.30
2018-04-11T13:38:39.563Z,21.60
2018-04-11T13:41:45.056Z,21.40
2018-04-11T13:44:50.000Z,21.10
2018-04-11T13:47:54.991Z,21.10
2018-04-11T13:50:59.160Z,20.80
2018-04-11T13:54:03.019Z,21.00
2018-04-11T13:57:06.905Z,21.30
2018-04-11T14:00:10.704Z,20.90
2018-04-11T14:03:15.330Z,20.40
2018-04-11T14:06:20.474Z,19.90
2018-04-11T14:09:24.720Z,19.80
2018-04-11T14:12:29.297Z,20.00
2018-04-11T14:15:33.561Z,19.80
2018-04-11T14:18:38.191Z,19.60
2018-04-11T14:21:46.300Z,19.50
2018-04-11T14:24:50.162Z,21.50
2018-04-11T14:27:54.845Z,22.00
2018-04-11T14:30:58.652Z,22.80
2018-04-11T14:34:02.493Z,22.80
2018-04-11T14:37:06.358Z,23.40
2018-04-11T14:40:10.907Z,23.80
2018-04-11T14:43:15.524Z,24.10
2018-04-11T14:46:19.352Z,24.30
2018-04-11T14:49:23.207Z,23.90
2018-04-11T14:52:27.043Z,22.60
2018-04-11T14:55:31.481Z,21.50
2018-04-11T14:58:36.389Z,20.60
2018-04-11T15:01:40.953Z,20.10
2018-04-11T15:04:44.861Z,19.90
2018-04-11T15:07:49.127Z,19.00
2018-04-11T15:10:53.363Z,18.80
2018-04-11T15:13:57.724Z,19.00
2018-04-11T15:17:01.544Z,19.40
2018-04-11T15:20:05.793Z,19.60
2018-04-11T15:23:10.014Z,19.20
2018-04-11T15:26:14.160Z,19.30
2018-04-11T15:29:18.748Z,19.40
2018-04-11T15:32:22.592Z,19.50
2018-04-11T15:35:27.187Z,19.40
2018-04-11T15:38:31.049Z,19.30
2018-04-11T15:41:35.697Z,18.90
2018-04-11T15:44:39.548Z,18.40
2018-04-11T15:47:43.367Z,18.10
2018-04-11T15:50:48.026Z,17.80
2018-04-11T15:53:52.629Z,17.50
2018-04-11T15:56:57.532Z,17.10
2018-04-11T16:00:06.988Z,17.20
2018-04-11T16:03:11.644Z,17.00
2018-04-11T16:06:17.491Z,17.10
2018-04-11T16:09:23.513Z,17.30
2018-04-11T16:12:28.098Z,17.40
2018-04-11T16:15:32.688Z,17.60
2018-04-11T16:18:37.320Z,17.90
2018-04-11T16:21:42.531Z,17.50
2018-04-11T16:24:46.827Z,17.70
2018-04-11T16:27:51.261Z,17.30
2018-04-11T16:30:56.256Z,17.10
2018-04-11T16:34:01.798Z,17.10
2018-04-11T16:37:06.416Z,17.10
2018-04-11T16:40:11.556Z,17.10
2018-04-11T16:43:16.410Z,17.00
2018-04-11T16:46:20.216Z,16.80
2018-04-11T16:49:25.375Z,16.80
2018-04-11T16:52:30.415Z,16.80
2018-04-11T16:55:35.018Z,16.90
2018-04-11T16:58:39.763Z,16.80
2018-04-11T17:01:44.119Z,16.70
2018-04-11T17:04:48.040Z,16.50
2018-04-11T17:07:52.708Z,16.60
2018-04-11T17:10:57.533Z,16.50
2018-04-11T17:14:01.788Z,16.50
2018-04-11T17:17:06.121Z,16.80
2018-04-11T17:20:11.030Z,16.70
2018-04-11T17:23:32.988Z,16.50
2018-04-11T17:26:55.463Z,16.40
2018-04-11T17:30:17.517Z,16.20
2018-04-11T17:33:21.364Z,15.90
2018-04-11T17:36:25.277Z,15.80
2018-04-11T17:39:29.172Z,16.20
2018-04-11T17:45:38.284Z,15.80
2018-04-11T17:48:43.304Z,15.70
2018-04-11T17:51:47.682Z,15.30
2018-04-11T17:54:51.959Z,15.20
2018-04-11T17:57:56.518Z,15.20
2018-04-11T18:01:00.446Z,14.70
2018-04-11T18:04:05.205Z,14.90
2018-04-11T18:07:09.852Z,14.80
2018-04-11T18:10:15.692Z,14.60
2018-04-11T18:13:19.977Z,14.50
2018-04-11T18:16:24.425Z,14.30
2018-04-11T18:19:29.729Z,14.20
2018-04-11T18:22:34.806Z,14.00
2018-04-11T18:25:39.574Z,14.00
2018-04-11T18:28:44.191Z,13.90
2018-04-11T18:31:48.552Z,13.80
2018-04-11T18:34:53.308Z,13.70
2018-04-11T18:37:58.576Z,13.60
2018-04-11T18:41:03.780Z,13.50
2018-04-11T18:44:08.448Z,13.30
2018-04-11T18:47:12.441Z,13.40
2018-04-11T18:50:17.036Z,13.30
2018-04-11T18:53:21.652Z,13.30
2018-04-11T18:56:26.416Z,13.30
2018-04-11T18:59:30.447Z,13.30
2018-04-11T19:02:35.217Z,13.10
2018-04-11T19:05:40.381Z,13.20
2018-04-11T19:08:45.532Z,13.00
2018-04-11T19:11:50.239Z,13.00
2018-04-11T19:14:54.547Z,12.90
2018-04-11T19:24:09.154Z,13.00
2018-04-11T19:27:14.765Z,12.90
2018-04-11T19:30:19.232Z,12.70
2018-04-11T19:33:23.106Z,12.90
2018-04-11T19:36:28.144Z,12.70
2018-04-11T19:39:32.348Z,12.70
2018-04-11T19:42:36.718Z,12.70
2018-04-11T19:45:41.481Z,12.60
2018-04-11T19:48:46.269Z,12.60
2018-04-11T19:51:52.191Z,12.50
2018-04-11T19:54:56.407Z,12.50
2018-04-11T19:58:00.393Z,12.50
2018-04-11T20:01:06.634Z,12.50
2018-04-11T20:04:12.840Z,12.40
2018-04-11T20:07:21.712Z,12.40
2018-04-11T20:10:28.657Z,12.20
2018-04-11T20:13:33.239Z,12.10
2018-04-11T20:16:40.049Z,12.40
2018-04-11T20:19:44.403Z,12.10
2018-04-11T20:22:48.827Z,12.30
2018-04-11T20:25:53.542Z,12.10
2018-04-11T20:28:58.448Z,12.00
2018-04-11T20:32:03.769Z,12.00
2018-04-11T20:35:07.664Z,12.00
2018-04-11T20:38:12.439Z,12.10
2018-04-11T20:41:17.126Z,11.90
2018-04-11T20:44:21.863Z,12.00
2018-04-11T20:47:26.177Z,12.10
2018-04-11T20:50:30.896Z,12.10
2018-04-11T20:53:35.527Z,12.10
2018-04-11T20:56:39.968Z,11.90
2018-04-11T20:59:44.681Z,12.10
2018-04-11T21:02:49.254Z,12.00
2018-04-11T21:05:53.549Z,12.10
2018-04-11T21:08:57.452Z,12.10
2018-04-11T21:12:05.047Z,12.10
2018-04-11T21:15:08.940Z,12.10
2018-04-11T21:18:13.551Z,11.90
2018-04-11T21:21:18.613Z,11.90
2018-04-11T21:24:23.027Z,11.90
2018-04-11T21:27:26.645Z,12.10
2018-04-11T21:30:32.224Z,12.00
2018-04-11T21:33:36.178Z,12.00
2018-04-11T21:36:39.984Z,11.80
2018-04-11T21:39:45.190Z,11.70
2018-04-11T21:42:49.488Z,11.70
2018-04-11T21:45:53.408Z,11.70
2018-04-11T21:48:57.320Z,11.50
2018-04-11T21:52:01.190Z,11.50
2018-04-11T21:55:05.104Z,11.30
2018-04-11T21:58:09.432Z,11.70
2018-04-11T22:01:13.428Z,11.70
2018-04-11T22:04:17.251Z,11.60
2018-04-11T22:07:23.156Z,11.60
2018-04-11T22:10:27.136Z,11.70
2018-04-11T22:13:31.459Z,11.60
2018-04-11T22:16:35.953Z,11.80
2018-04-11T22:19:40.257Z,11.50
2018-04-11T22:22:44.969Z,11.50
2018-04-11T22:25:52.089Z,11.50
2018-04-11T22:28:55.941Z,11.60
2018-04-11T22:32:00.238Z,11.30
2018-04-11T22:35:05.388Z,11.30
2018-04-11T22:38:10.365Z,11.20
2018-04-11T22:41:15.259Z,11.10
2018-04-11T22:44:19.352Z,10.90
2018-04-11T22:47:23.915Z,10.90
2018-04-11T22:50:28.211Z,11.00
2018-04-11T22:53:32.711Z,11.00
2018-04-11T22:56:37.945Z,11.00
2018-04-11T23:02:47.735Z,11.00
2018-04-11T23:05:51.876Z,11.10
2018-04-11T23:08:56.565Z,10.90
2018-04-11T23:12:00.915Z,10.80
2018-04-11T23:15:05.669Z,10.90
2018-04-11T23:18:10.358Z,10.90
2018-04-11T23:21:16.084Z,10.80
2018-04-11T23:24:20.028Z,10.50
2018-04-11T23:27:24.591Z,10.70
2018-04-11T23:30:28.819Z,10.80
2018-04-11T23:33:33.437Z,10.70
2018-04-11T23:36:37.711Z,10.70
2018-04-11T23:39:42.153Z,10.60
2018-04-11T23:42:47.148Z,10.40
2018-04-11T23:45:51.500Z,10.30
2018-04-11T23:48:55.787Z,10.30
2018-04-11T23:52:00.833Z,10.40
2018-04-11T23:55:05.465Z,10.10
2018-04-11T23:58:10.081Z,10.10
